sensor_id;sensor_type;location;lat;lon;timestamp;P1;durP1;ratioP1;P2;durP2;ratioP2
249;SDS011;109;19.806;-70.704;2023-05-10T00:00:39;33.37;;;9.30;;
249;SDS011;109;19.806;-70.704;2023-05-10T00:03:06;34.10;;;9.70;;
249;SDS011;109;19.806;-70.704;2023-05-10T00:05:33;35.20;;;10.47;;
249;SDS011;109;19.806;-70.704;2023-05-10T00:07:59;46.57;;;10.67;;
249;SDS011;109;19.806;-70.704;2023-05-10T00:10:26;42.03;;;10.47;;
249;SDS011;109;19.806;-70.704;2023-05-10T00:12:52;33.57;;;9.00;;
249;SDS011;109;19.806;-70.704;2023-05-10T00:15:19;38.20;;;9.67;;
249;SDS011;109;19.806;-70.704;2023-05-10T00:17:45;40.53;;;10.33;;
249;SDS011;109;19.806;-70.704;2023-05-10T00:20:12;32.40;;;10.97;;
249;SDS011;109;19.806;-70.704;2023-05-10T00:22:38;39.20;;;10.43;;
249;SDS011;109;19.806;-70.704;2023-05-10T00:25:05;32.63;;;9.93;;
249;SDS011;109;19.806;-70.704;2023-05-10T00:27:32;35.00;;;9.30;;
249;SDS011;109;19.806;-70.704;2023-05-10T00:29:58;40.70;;;8.60;;
249;SDS011;109;19.806;-70.704;2023-05-10T00:32:25;45.77;;;9.77;;
249;SDS011;109;19.806;-70.704;2023-05-10T00:34:51;36.43;;;9.87;;
249;SDS011;109;19.806;-70.704;2023-05-10T00:37:18;41.20;;;10.03;;
249;SDS011;109;19.806;-70.704;2023-05-10T00:39:44;33.07;;;8.90;;
249;SDS011;109;19.806;-70.704;2023-05-10T00:42:11;28.33;;;8.87;;
249;SDS011;109;19.806;-70.704;2023-05-10T00:44:37;29.20;;;9.60;;
249;SDS011;109;19.806;-70.704;2023-05-10T00:47:05;25.87;;;8.17;;
249;SDS011;109;19.806;-70.704;2023-05-10T00:49:31;31.90;;;8.77;;
249;SDS011;109;19.806;-70.704;2023-05-10T00:51:58;33.13;;;8.57;;
249;SDS011;109;19.806;-70.704;2023-05-10T00:54:25;40.97;;;9.23;;
249;SDS011;109;19.806;-70.704;2023-05-10T00:56:51;43.67;;;10.93;;
249;SDS011;109;19.806;-70.704;2023-05-10T00:59:18;32.67;;;9.90;;
249;SDS011;109;19.806;-70.704;2023-05-10T01:01:45;39.47;;;9.03;;
249;SDS011;109;19.806;-70.704;2023-05-10T01:04:12;30.07;;;9.73;;
249;SDS011;109;19.806;-70.704;2023-05-10T01:06:41;43.93;;;9.20;;
249;SDS011;109;19.806;-70.704;2023-05-10T01:09:14;36.57;;;10.60;;
249;SDS011;109;19.806;-70.704;2023-05-10T01:11:41;43.07;;;10.37;;
249;SDS011;109;19.806;-70.704;2023-05-10T01:14:14;44.83;;;9.97;;
249;SDS011;109;19.806;-70.704;2023-05-10T01:16:44;44.53;;;10.17;;
249;SDS011;109;19.806;-70.704;2023-05-10T01:19:23;38.27;;;9.90;;
249;SDS011;109;19.806;-70.704;2023-05-10T01:22:20;41.17;;;10.10;;
249;SDS011;109;19.806;-70.704;2023-05-10T01:25:29;30.57;;;10.23;;
249;SDS011;109;19.806;-70.704;2023-05-10T01:34:09;44.97;;;9.20;;
249;SDS011;109;19.806;-70.704;2023-05-10T01:36:51;45.03;;;9.73;;
249;SDS011;109;19.806;-70.704;2023-05-10T01:42:17;33.40;;;8.90;;
249;SDS011;109;19.806;-70.704;2023-05-10T01:48:10;48.10;;;10.10;;
249;SDS011;109;19.806;-70.704;2023-05-10T01:50:45;36.27;;;10.27;;
249;SDS011;109;19.806;-70.704;2023-05-10T01:53:14;30.90;;;9.77;;
249;SDS011;109;19.806;-70.704;2023-05-10T01:55:52;36.80;;;9.87;;
249;SDS011;109;19.806;-70.704;2023-05-10T01:58:22;32.73;;;9.50;;
249;SDS011;109;19.806;-70.704;2023-05-10T02:01:06;38.43;;;10.27;;
249;SDS011;109;19.806;-70.704;2023-05-10T02:03:33;36.37;;;9.40;;
249;SDS011;109;19.806;-70.704;2023-05-10T02:06:10;40.03;;;10.37;;
249;SDS011;109;19.806;-70.704;2023-05-10T02:08:47;39.27;;;9.17;;
249;SDS011;109;19.806;-70.704;2023-05-10T02:11:17;34.87;;;10.43;;
249;SDS011;109;19.806;-70.704;2023-05-10T02:13:53;35.53;;;9.27;;
249;SDS011;109;19.806;-70.704;2023-05-10T02:16:27;34.90;;;9.50;;
249;SDS011;109;19.806;-70.704;2023-05-10T02:19:02;36.23;;;9.70;;
249;SDS011;109;19.806;-70.704;2023-05-10T02:21:29;26.40;;;10.13;;
249;SDS011;109;19.806;-70.704;2023-05-10T02:24:05;45.00;;;10.00;;
249;SDS011;109;19.806;-70.704;2023-05-10T02:26:34;36.53;;;10.47;;
249;SDS011;109;19.806;-70.704;2023-05-10T02:29:09;46.33;;;9.90;;
249;SDS011;109;19.806;-70.704;2023-05-10T02:31:37;34.33;;;9.43;;
249;SDS011;109;19.806;-70.704;2023-05-10T02:34:19;41.00;;;11.43;;
249;SDS011;109;19.806;-70.704;2023-05-10T02:37:06;34.90;;;11.03;;
249;SDS011;109;19.806;-70.704;2023-05-10T02:39:33;31.90;;;10.33;;
249;SDS011;109;19.806;-70.704;2023-05-10T02:42:07;57.73;;;13.13;;
249;SDS011;109;19.806;-70.704;2023-05-10T02:44:35;42.53;;;11.57;;
249;SDS011;109;19.806;-70.704;2023-05-10T02:47:09;31.40;;;10.80;;
249;SDS011;109;19.806;-70.704;2023-05-10T02:49:36;34.90;;;11.37;;
249;SDS011;109;19.806;-70.704;2023-05-10T02:52:09;36.70;;;11.70;;
249;SDS011;109;19.806;-70.704;2023-05-10T02:54:41;30.33;;;11.10;;
249;SDS011;109;19.806;-70.704;2023-05-10T02:57:17;37.10;;;11.43;;
249;SDS011;109;19.806;-70.704;2023-05-10T03:00:04;45.43;;;12.13;;
249;SDS011;109;19.806;-70.704;2023-05-10T03:02:32;38.23;;;12.40;;
249;SDS011;109;19.806;-70.704;2023-05-10T03:05:04;35.20;;;11.70;;
249;SDS011;109;19.806;-70.704;2023-05-10T03:07:32;38.07;;;12.03;;
249;SDS011;109;19.806;-70.704;2023-05-10T03:10:06;38.30;;;12.97;;
249;SDS011;109;19.806;-70.704;2023-05-10T03:12:41;40.30;;;12.37;;
249;SDS011;109;19.806;-70.704;2023-05-10T03:18:50;45.80;;;16.60;;
249;SDS011;109;19.806;-70.704;2023-05-10T03:21:28;46.73;;;15.90;;
249;SDS011;109;19.806;-70.704;2023-05-10T03:24:06;50.97;;;14.77;;
249;SDS011;109;19.806;-70.704;2023-05-10T03:26:43;41.67;;;16.63;;
249;SDS011;109;19.806;-70.704;2023-05-10T03:29:15;49.30;;;16.20;;
249;SDS011;109;19.806;-70.704;2023-05-10T03:31:49;45.77;;;16.30;;
249;SDS011;109;19.806;-70.704;2023-05-10T03:34:16;45.90;;;15.00;;
249;SDS011;109;19.806;-70.704;2023-05-10T03:36:50;45.13;;;15.47;;
249;SDS011;109;19.806;-70.704;2023-05-10T03:39:31;40.73;;;14.17;;
249;SDS011;109;19.806;-70.704;2023-05-10T03:41:59;42.03;;;13.90;;
249;SDS011;109;19.806;-70.704;2023-05-10T03:44:32;46.67;;;13.40;;
249;SDS011;109;19.806;-70.704;2023-05-10T03:46:59;40.00;;;14.23;;
249;SDS011;109;19.806;-70.704;2023-05-10T03:49:31;36.83;;;13.30;;
249;SDS011;109;19.806;-70.704;2023-05-10T03:51:58;40.53;;;13.13;;
249;SDS011;109;19.806;-70.704;2023-05-10T03:54:31;36.30;;;13.80;;
249;SDS011;109;19.806;-70.704;2023-05-10T03:56:58;34.73;;;11.63;;
249;SDS011;109;19.806;-70.704;2023-05-10T03:59:33;38.80;;;12.80;;
249;SDS011;109;19.806;-70.704;2023-05-10T04:01:59;30.93;;;12.67;;
249;SDS011;109;19.806;-70.704;2023-05-10T04:04:32;34.77;;;12.60;;
249;SDS011;109;19.806;-70.704;2023-05-10T04:07:06;27.33;;;11.53;;
249;SDS011;109;19.806;-70.704;2023-05-10T04:09:39;41.73;;;12.43;;
249;SDS011;109;19.806;-70.704;2023-05-10T04:12:06;30.63;;;11.80;;
249;SDS011;109;19.806;-70.704;2023-05-10T04:14:39;41.70;;;12.57;;
249;SDS011;109;19.806;-70.704;2023-05-10T04:17:06;40.57;;;12.90;;
249;SDS011;109;19.806;-70.704;2023-05-10T04:19:39;39.77;;;12.20;;
249;SDS011;109;19.806;-70.704;2023-05-10T04:22:06;38.23;;;12.33;;
249;SDS011;109;19.806;-70.704;2023-05-10T04:24:38;39.13;;;12.77;;
249;SDS011;109;19.806;-70.704;2023-05-10T04:27:05;41.97;;;12.70;;
249;SDS011;109;19.806;-70.704;2023-05-10T04:29:37;46.13;;;13.50;;
249;SDS011;109;19.806;-70.704;2023-05-10T04:32:04;57.20;;;18.30;;
249;SDS011;109;19.806;-70.704;2023-05-10T04:34:37;57.40;;;16.33;;
249;SDS011;109;19.806;-70.704;2023-05-10T04:37:25;49.67;;;16.67;;
249;SDS011;109;19.806;-70.704;2023-05-10T04:39:58;38.00;;;14.90;;
249;SDS011;109;19.806;-70.704;2023-05-10T04:42:25;53.97;;;14.10;;
249;SDS011;109;19.806;-70.704;2023-05-10T04:44:58;45.77;;;13.93;;
249;SDS011;109;19.806;-70.704;2023-05-10T04:47:25;53.20;;;13.43;;
249;SDS011;109;19.806;-70.704;2023-05-10T04:49:58;34.43;;;11.87;;
249;SDS011;109;19.806;-70.704;2023-05-10T04:52:25;33.53;;;11.87;;
249;SDS011;109;19.806;-70.704;2023-05-10T04:54:57;34.27;;;11.40;;
249;SDS011;109;19.806;-70.704;2023-05-10T04:57:24;37.80;;;11.53;;
249;SDS011;109;19.806;-70.704;2023-05-10T04:59:56;38.67;;;12.50;;
249;SDS011;109;19.806;-70.704;2023-05-10T05:02:23;32.70;;;11.00;;
249;SDS011;109;19.806;-70.704;2023-05-10T05:04:55;34.00;;;10.80;;
249;SDS011;109;19.806;-70.704;2023-05-10T05:07:31;39.40;;;11.80;;
249;SDS011;109;19.806;-70.704;2023-05-10T05:10:05;36.00;;;11.13;;
249;SDS011;109;19.806;-70.704;2023-05-10T05:12:32;34.97;;;11.07;;
249;SDS011;109;19.806;-70.704;2023-05-10T05:15:05;27.63;;;11.80;;
249;SDS011;109;19.806;-70.704;2023-05-10T05:17:34;32.63;;;11.60;;
249;SDS011;109;19.806;-70.704;2023-05-10T05:20:09;40.17;;;11.97;;
249;SDS011;109;19.806;-70.704;2023-05-10T05:22:36;28.80;;;11.33;;
249;SDS011;109;19.806;-70.704;2023-05-10T05:25:09;36.20;;;11.97;;
249;SDS011;109;19.806;-70.704;2023-05-10T05:27:37;38.40;;;11.03;;
249;SDS011;109;19.806;-70.704;2023-05-10T05:30:10;30.40;;;11.57;;
249;SDS011;109;19.806;-70.704;2023-05-10T05:32:38;39.87;;;13.10;;
249;SDS011;109;19.806;-70.704;2023-05-10T05:35:10;32.83;;;13.20;;
249;SDS011;109;19.806;-70.704;2023-05-10T05:37:58;26.70;;;11.00;;
249;SDS011;109;19.806;-70.704;2023-05-10T05:40:30;34.53;;;11.60;;
249;SDS011;109;19.806;-70.704;2023-05-10T05:42:57;34.90;;;11.77;;
249;SDS011;109;19.806;-70.704;2023-05-10T05:45:29;33.27;;;10.97;;
249;SDS011;109;19.806;-70.704;2023-05-10T05:47:56;31.37;;;11.70;;
249;SDS011;109;19.806;-70.704;2023-05-10T05:50:28;26.43;;;11.23;;
249;SDS011;109;19.806;-70.704;2023-05-10T05:52:55;35.20;;;12.93;;
249;SDS011;109;19.806;-70.704;2023-05-10T05:55:28;25.97;;;11.50;;
249;SDS011;109;19.806;-70.704;2023-05-10T05:57:57;25.73;;;11.90;;
249;SDS011;109;19.806;-70.704;2023-05-10T06:00:30;29.83;;;12.00;;
249;SDS011;109;19.806;-70.704;2023-05-10T06:02:57;27.83;;;11.20;;
249;SDS011;109;19.806;-70.704;2023-05-10T06:05:29;25.47;;;11.37;;
249;SDS011;109;19.806;-70.704;2023-05-10T06:08:03;31.03;;;12.17;;
249;SDS011;109;19.806;-70.704;2023-05-10T06:10:36;25.30;;;12.10;;
249;SDS011;109;19.806;-70.704;2023-05-10T06:13:03;30.00;;;12.30;;
249;SDS011;109;19.806;-70.704;2023-05-10T06:15:37;35.50;;;12.07;;
249;SDS011;109;19.806;-70.704;2023-05-10T06:18:03;28.90;;;11.13;;
249;SDS011;109;19.806;-70.704;2023-05-10T06:20:37;32.20;;;12.07;;
249;SDS011;109;19.806;-70.704;2023-05-10T06:23:04;27.00;;;10.87;;
249;SDS011;109;19.806;-70.704;2023-05-10T06:25:37;28.60;;;11.30;;
249;SDS011;109;19.806;-70.704;2023-05-10T06:28:04;32.03;;;11.97;;
249;SDS011;109;19.806;-70.704;2023-05-10T06:30:36;22.50;;;11.23;;
249;SDS011;109;19.806;-70.704;2023-05-10T06:33:03;26.70;;;10.50;;
249;SDS011;109;19.806;-70.704;2023-05-10T06:35:35;24.60;;;11.77;;
249;SDS011;109;19.806;-70.704;2023-05-10T06:38:23;33.87;;;11.57;;
249;SDS011;109;19.806;-70.704;2023-05-10T06:40:56;31.00;;;11.73;;
249;SDS011;109;19.806;-70.704;2023-05-10T06:43:23;35.17;;;11.60;;
249;SDS011;109;19.806;-70.704;2023-05-10T06:45:57;39.57;;;12.00;;
249;SDS011;109;19.806;-70.704;2023-05-10T06:48:23;32.07;;;11.73;;
249;SDS011;109;19.806;-70.704;2023-05-10T06:50:56;30.60;;;12.17;;
249;SDS011;109;19.806;-70.704;2023-05-10T06:53:23;28.70;;;12.33;;
249;SDS011;109;19.806;-70.704;2023-05-10T06:55:56;35.27;;;11.37;;
249;SDS011;109;19.806;-70.704;2023-05-10T06:58:23;25.23;;;11.30;;
249;SDS011;109;19.806;-70.704;2023-05-10T07:01:01;25.43;;;11.30;;
249;SDS011;109;19.806;-70.704;2023-05-10T07:03:37;29.13;;;11.10;;
249;SDS011;109;19.806;-70.704;2023-05-10T07:06:04;28.93;;;11.20;;
249;SDS011;109;19.806;-70.704;2023-05-10T07:08:46;29.47;;;11.23;;
249;SDS011;109;19.806;-70.704;2023-05-10T07:11:18;28.70;;;11.33;;
249;SDS011;109;19.806;-70.704;2023-05-10T07:13:45;26.80;;;11.40;;
249;SDS011;109;19.806;-70.704;2023-05-10T07:16:18;32.53;;;11.17;;
249;SDS011;109;19.806;-70.704;2023-05-10T07:18:45;34.27;;;11.03;;
249;SDS011;109;19.806;-70.704;2023-05-10T07:21:18;24.87;;;10.57;;
249;SDS011;109;19.806;-70.704;2023-05-10T07:23:45;44.00;;;10.87;;
249;SDS011;109;19.806;-70.704;2023-05-10T07:26:18;27.83;;;10.63;;
249;SDS011;109;19.806;-70.704;2023-05-10T07:28:46;24.23;;;10.57;;
249;SDS011;109;19.806;-70.704;2023-05-10T07:31:19;22.20;;;10.00;;
249;SDS011;109;19.806;-70.704;2023-05-10T07:33:46;28.47;;;10.30;;
249;SDS011;109;19.806;-70.704;2023-05-10T07:36:20;25.30;;;10.60;;
249;SDS011;109;19.806;-70.704;2023-05-10T07:39:07;28.00;;;11.13;;
249;SDS011;109;19.806;-70.704;2023-05-10T07:41:40;30.90;;;11.10;;
249;SDS011;109;19.806;-70.704;2023-05-10T07:44:07;25.10;;;10.87;;
249;SDS011;109;19.806;-70.704;2023-05-10T07:46:39;35.03;;;11.20;;
249;SDS011;109;19.806;-70.704;2023-05-10T07:49:06;30.80;;;10.73;;
249;SDS011;109;19.806;-70.704;2023-05-10T07:51:38;23.77;;;10.33;;
249;SDS011;109;19.806;-70.704;2023-05-10T07:54:05;19.00;;;9.63;;
249;SDS011;109;19.806;-70.704;2023-05-10T07:56:46;25.00;;;10.60;;
249;SDS011;109;19.806;-70.704;2023-05-10T07:59:19;18.97;;;9.53;;
249;SDS011;109;19.806;-70.704;2023-05-10T08:01:46;34.37;;;10.53;;
249;SDS011;109;19.806;-70.704;2023-05-10T08:04:19;20.77;;;9.77;;
249;SDS011;109;19.806;-70.704;2023-05-10T08:06:46;24.57;;;11.17;;
249;SDS011;109;19.806;-70.704;2023-05-10T08:09:18;25.53;;;10.23;;
249;SDS011;109;19.806;-70.704;2023-05-10T08:11:55;23.73;;;9.77;;
249;SDS011;109;19.806;-70.704;2023-05-10T08:14:22;27.67;;;10.87;;
249;SDS011;109;19.806;-70.704;2023-05-10T08:16:54;27.37;;;9.97;;
249;SDS011;109;19.806;-70.704;2023-05-10T08:19:21;19.27;;;9.47;;
249;SDS011;109;19.806;-70.704;2023-05-10T08:21:54;20.20;;;9.33;;
249;SDS011;109;19.806;-70.704;2023-05-10T08:24:21;25.70;;;9.60;;
249;SDS011;109;19.806;-70.704;2023-05-10T08:26:54;26.83;;;10.33;;
249;SDS011;109;19.806;-70.704;2023-05-10T08:29:21;21.23;;;8.60;;
249;SDS011;109;19.806;-70.704;2023-05-10T08:31:53;31.33;;;9.23;;
249;SDS011;109;19.806;-70.704;2023-05-10T08:34:20;20.67;;;9.67;;
249;SDS011;109;19.806;-70.704;2023-05-10T08:36:53;19.27;;;8.67;;
249;SDS011;109;19.806;-70.704;2023-05-10T08:39:34;29.57;;;9.23;;
249;SDS011;109;19.806;-70.704;2023-05-10T08:42:02;26.33;;;9.80;;
249;SDS011;109;19.806;-70.704;2023-05-10T08:44:43;26.57;;;9.63;;
249;SDS011;109;19.806;-70.704;2023-05-10T08:47:20;24.30;;;10.00;;
249;SDS011;109;19.806;-70.704;2023-05-10T08:49:47;24.03;;;10.37;;
249;SDS011;109;19.806;-70.704;2023-05-10T08:52:22;19.10;;;7.83;;
249;SDS011;109;19.806;-70.704;2023-05-10T08:55:00;29.37;;;10.03;;
249;SDS011;109;19.806;-70.704;2023-05-10T08:57:27;21.80;;;8.80;;
249;SDS011;109;19.806;-70.704;2023-05-10T09:00:00;20.10;;;8.83;;
249;SDS011;109;19.806;-70.704;2023-05-10T09:02:27;25.33;;;8.70;;
249;SDS011;109;19.806;-70.704;2023-05-10T09:04:59;23.43;;;8.97;;
249;SDS011;109;19.806;-70.704;2023-05-10T09:07:26;24.50;;;9.60;;
249;SDS011;109;19.806;-70.704;2023-05-10T09:09:59;30.10;;;9.57;;
249;SDS011;109;19.806;-70.704;2023-05-10T09:12:26;20.67;;;8.93;;
249;SDS011;109;19.806;-70.704;2023-05-10T09:14:59;19.50;;;8.50;;
249;SDS011;109;19.806;-70.704;2023-05-10T09:17:27;25.90;;;10.00;;
249;SDS011;109;19.806;-70.704;2023-05-10T09:20:03;24.03;;;9.00;;
249;SDS011;109;19.806;-70.704;2023-05-10T09:22:30;21.47;;;9.93;;
249;SDS011;109;19.806;-70.704;2023-05-10T09:25:11;25.40;;;9.97;;
249;SDS011;109;19.806;-70.704;2023-05-10T09:27:48;28.00;;;10.33;;
249;SDS011;109;19.806;-70.704;2023-05-10T09:30:23;25.90;;;10.03;;
249;SDS011;109;19.806;-70.704;2023-05-10T09:33:06;22.97;;;9.37;;
249;SDS011;109;19.806;-70.704;2023-05-10T09:35:47;24.90;;;9.27;;
249;SDS011;109;19.806;-70.704;2023-05-10T09:38:23;25.50;;;8.27;;
249;SDS011;109;19.806;-70.704;2023-05-10T09:40:51;25.53;;;10.30;;
249;SDS011;109;19.806;-70.704;2023-05-10T09:43:29;18.60;;;9.20;;
249;SDS011;109;19.806;-70.704;2023-05-10T09:46:10;23.03;;;9.40;;
249;SDS011;109;19.806;-70.704;2023-05-10T09:48:46;20.77;;;9.50;;
249;SDS011;109;19.806;-70.704;2023-05-10T09:51:21;18.77;;;9.03;;
249;SDS011;109;19.806;-70.704;2023-05-10T09:53:49;19.87;;;8.80;;
249;SDS011;109;19.806;-70.704;2023-05-10T09:56:45;23.80;;;9.60;;
249;SDS011;109;19.806;-70.704;2023-05-10T09:59:11;22.93;;;9.53;;
249;SDS011;109;19.806;-70.704;2023-05-10T10:01:51;21.37;;;9.17;;
249;SDS011;109;19.806;-70.704;2023-05-10T10:04:24;19.37;;;8.80;;
249;SDS011;109;19.806;-70.704;2023-05-10T10:07:03;24.70;;;9.00;;
249;SDS011;109;19.806;-70.704;2023-05-10T10:09:37;31.43;;;10.67;;
249;SDS011;109;19.806;-70.704;2023-05-10T10:12:04;19.93;;;9.30;;
249;SDS011;109;19.806;-70.704;2023-05-10T10:14:37;24.17;;;9.27;;
249;SDS011;109;19.806;-70.704;2023-05-10T10:17:04;21.10;;;8.37;;
249;SDS011;109;19.806;-70.704;2023-05-10T10:19:37;20.70;;;8.80;;
249;SDS011;109;19.806;-70.704;2023-05-10T10:22:04;21.73;;;9.00;;
249;SDS011;109;19.806;-70.704;2023-05-10T10:24:38;24.93;;;10.07;;
249;SDS011;109;19.806;-70.704;2023-05-10T10:27:13;20.63;;;10.40;;
249;SDS011;109;19.806;-70.704;2023-05-10T10:30:04;33.73;;;9.97;;
249;SDS011;109;19.806;-70.704;2023-05-10T10:35:23;22.40;;;9.33;;
249;SDS011;109;19.806;-70.704;2023-05-10T10:38:12;17.33;;;8.23;;
249;SDS011;109;19.806;-70.704;2023-05-10T10:40:46;27.03;;;8.87;;
249;SDS011;109;19.806;-70.704;2023-05-10T10:43:23;20.30;;;9.27;;
249;SDS011;109;19.806;-70.704;2023-05-10T10:46:16;20.37;;;8.37;;
249;SDS011;109;19.806;-70.704;2023-05-10T10:49:07;21.60;;;9.30;;
249;SDS011;109;19.806;-70.704;2023-05-10T10:52:12;31.07;;;9.60;;
249;SDS011;109;19.806;-70.704;2023-05-10T10:54:51;24.67;;;10.00;;
249;SDS011;109;19.806;-70.704;2023-05-10T10:57:30;27.23;;;8.80;;
249;SDS011;109;19.806;-70.704;2023-05-10T11:05:45;43.67;;;10.77;;
249;SDS011;109;19.806;-70.704;2023-05-10T11:08:28;48.83;;;10.80;;
249;SDS011;109;19.806;-70.704;2023-05-10T11:13:40;20.97;;;9.50;;
249;SDS011;109;19.806;-70.704;2023-05-10T11:18:40;22.10;;;11.10;;
249;SDS011;109;19.806;-70.704;2023-05-10T11:21:08;27.30;;;11.00;;
249;SDS011;109;19.806;-70.704;2023-05-10T11:26:07;24.90;;;14.30;;
249;SDS011;109;19.806;-70.704;2023-05-10T11:31:09;34.20;;;12.67;;
249;SDS011;109;19.806;-70.704;2023-05-10T11:33:45;28.87;;;11.70;;
249;SDS011;109;19.806;-70.704;2023-05-10T11:36:20;30.67;;;12.00;;
249;SDS011;109;19.806;-70.704;2023-05-10T11:38:48;27.10;;;11.00;;
249;SDS011;109;19.806;-70.704;2023-05-10T11:41:16;34.07;;;12.07;;
249;SDS011;109;19.806;-70.704;2023-05-10T11:43:48;28.57;;;11.73;;
249;SDS011;109;19.806;-70.704;2023-05-10T11:46:18;40.00;;;12.63;;
249;SDS011;109;19.806;-70.704;2023-05-10T11:48:49;29.33;;;12.90;;
249;SDS011;109;19.806;-70.704;2023-05-10T11:51:23;31.83;;;13.00;;
249;SDS011;109;19.806;-70.704;2023-05-10T11:53:52;32.70;;;11.80;;
249;SDS011;109;19.806;-70.704;2023-05-10T11:56:20;30.73;;;11.87;;
249;SDS011;109;19.806;-70.704;2023-05-10T11:58:52;28.27;;;11.53;;
249;SDS011;109;19.806;-70.704;2023-05-10T12:01:22;27.53;;;11.10;;
249;SDS011;109;19.806;-70.704;2023-05-10T12:03:53;25.53;;;10.70;;
249;SDS011;109;19.806;-70.704;2023-05-10T12:06:25;25.50;;;10.33;;
249;SDS011;109;19.806;-70.704;2023-05-10T12:08:54;23.87;;;9.83;;
249;SDS011;109;19.806;-70.704;2023-05-10T12:11:23;27.27;;;10.90;;
249;SDS011;109;19.806;-70.704;2023-05-10T12:13:51;22.00;;;10.63;;
249;SDS011;109;19.806;-70.704;2023-05-10T12:16:25;28.23;;;11.30;;
249;SDS011;109;19.806;-70.704;2023-05-10T12:18:58;23.50;;;11.87;;
249;SDS011;109;19.806;-70.704;2023-05-10T12:21:26;31.47;;;10.07;;
249;SDS011;109;19.806;-70.704;2023-05-10T12:23:59;27.20;;;11.53;;
249;SDS011;109;19.806;-70.704;2023-05-10T12:26:30;31.10;;;12.53;;
249;SDS011;109;19.806;-70.704;2023-05-10T12:29:13;39.93;;;11.23;;
249;SDS011;109;19.806;-70.704;2023-05-10T12:31:51;34.23;;;12.27;;
249;SDS011;109;19.806;-70.704;2023-05-10T12:34:23;51.40;;;12.80;;
249;SDS011;109;19.806;-70.704;2023-05-10T12:37:03;40.10;;;12.03;;
249;SDS011;109;19.806;-70.704;2023-05-10T12:39:40;54.80;;;12.40;;
249;SDS011;109;19.806;-70.704;2023-05-10T12:42:08;53.07;;;13.70;;
249;SDS011;109;19.806;-70.704;2023-05-10T12:44:35;37.83;;;12.60;;
249;SDS011;109;19.806;-70.704;2023-05-10T12:47:02;39.80;;;12.30;;
249;SDS011;109;19.806;-70.704;2023-05-10T12:49:29;33.30;;;12.70;;
249;SDS011;109;19.806;-70.704;2023-05-10T12:51:55;42.23;;;12.70;;
249;SDS011;109;19.806;-70.704;2023-05-10T12:54:22;37.20;;;12.13;;
249;SDS011;109;19.806;-70.704;2023-05-10T12:56:49;34.90;;;12.50;;
249;SDS011;109;19.806;-70.704;2023-05-10T12:59:16;30.67;;;11.90;;
249;SDS011;109;19.806;-70.704;2023-05-10T13:01:44;38.33;;;11.90;;
249;SDS011;109;19.806;-70.704;2023-05-10T13:04:11;41.20;;;12.60;;
249;SDS011;109;19.806;-70.704;2023-05-10T13:06:38;43.00;;;15.07;;
249;SDS011;109;19.806;-70.704;2023-05-10T13:09:05;56.87;;;14.23;;
249;SDS011;109;19.806;-70.704;2023-05-10T13:11:32;42.77;;;12.27;;
249;SDS011;109;19.806;-70.704;2023-05-10T13:14:00;33.37;;;12.83;;
249;SDS011;109;19.806;-70.704;2023-05-10T13:16:29;37.90;;;13.27;;
249;SDS011;109;19.806;-70.704;2023-05-10T13:18:56;43.37;;;14.90;;
249;SDS011;109;19.806;-70.704;2023-05-10T13:21:24;43.57;;;13.93;;
249;SDS011;109;19.806;-70.704;2023-05-10T13:23:52;39.30;;;11.57;;
249;SDS011;109;19.806;-70.704;2023-05-10T13:26:19;39.50;;;13.20;;
249;SDS011;109;19.806;-70.704;2023-05-10T13:28:47;35.87;;;11.80;;
249;SDS011;109;19.806;-70.704;2023-05-10T13:31:15;35.67;;;12.87;;
249;SDS011;109;19.806;-70.704;2023-05-10T13:33:42;39.47;;;12.67;;
249;SDS011;109;19.806;-70.704;2023-05-10T13:36:10;38.13;;;13.27;;
249;SDS011;109;19.806;-70.704;2023-05-10T13:38:45;55.23;;;13.53;;
249;SDS011;109;19.806;-70.704;2023-05-10T13:41:12;32.30;;;13.10;;
249;SDS011;109;19.806;-70.704;2023-05-10T13:43:39;41.73;;;13.60;;
249;SDS011;109;19.806;-70.704;2023-05-10T13:46:07;47.97;;;14.83;;
249;SDS011;109;19.806;-70.704;2023-05-10T13:48:34;59.30;;;13.10;;
249;SDS011;109;19.806;-70.704;2023-05-10T13:51:05;49.90;;;13.30;;
249;SDS011;109;19.806;-70.704;2023-05-10T13:53:32;45.37;;;13.83;;
249;SDS011;109;19.806;-70.704;2023-05-10T13:55:59;45.03;;;12.33;;
249;SDS011;109;19.806;-70.704;2023-05-10T13:58:28;31.90;;;13.70;;
249;SDS011;109;19.806;-70.704;2023-05-10T14:00:55;32.73;;;13.20;;
249;SDS011;109;19.806;-70.704;2023-05-10T14:03:23;36.90;;;12.83;;
249;SDS011;109;19.806;-70.704;2023-05-10T14:05:50;46.60;;;14.57;;
249;SDS011;109;19.806;-70.704;2023-05-10T14:08:17;37.13;;;12.20;;
249;SDS011;109;19.806;-70.704;2023-05-10T14:10:46;38.67;;;13.20;;
249;SDS011;109;19.806;-70.704;2023-05-10T14:13:14;45.67;;;13.30;;
249;SDS011;109;19.806;-70.704;2023-05-10T14:15:42;35.03;;;12.07;;
249;SDS011;109;19.806;-70.704;2023-05-10T14:18:09;41.90;;;12.23;;
249;SDS011;109;19.806;-70.704;2023-05-10T14:20:37;36.13;;;11.30;;
249;SDS011;109;19.806;-70.704;2023-05-10T14:23:04;68.83;;;14.50;;
249;SDS011;109;19.806;-70.704;2023-05-10T14:25:32;40.87;;;12.60;;
249;SDS011;109;19.806;-70.704;2023-05-10T14:28:00;32.13;;;11.30;;
249;SDS011;109;19.806;-70.704;2023-05-10T14:30:27;52.13;;;13.63;;
249;SDS011;109;19.806;-70.704;2023-05-10T14:32:55;47.53;;;12.90;;
249;SDS011;109;19.806;-70.704;2023-05-10T14:35:24;33.20;;;10.87;;
249;SDS011;109;19.806;-70.704;2023-05-10T14:37:51;28.77;;;10.07;;
249;SDS011;109;19.806;-70.704;2023-05-10T14:40:19;43.40;;;12.60;;
249;SDS011;109;19.806;-70.704;2023-05-10T14:42:47;49.00;;;15.13;;
249;SDS011;109;19.806;-70.704;2023-05-10T14:45:14;47.90;;;14.63;;
249;SDS011;109;19.806;-70.704;2023-05-10T14:47:42;53.70;;;13.77;;
249;SDS011;109;19.806;-70.704;2023-05-10T14:50:09;40.80;;;14.07;;
249;SDS011;109;19.806;-70.704;2023-05-10T14:52:37;36.30;;;13.50;;
249;SDS011;109;19.806;-70.704;2023-05-10T14:55:04;42.53;;;13.80;;
249;SDS011;109;19.806;-70.704;2023-05-10T14:57:32;59.87;;;14.67;;
249;SDS011;109;19.806;-70.704;2023-05-10T15:00:00;60.63;;;15.10;;
249;SDS011;109;19.806;-70.704;2023-05-10T15:02:27;45.73;;;13.00;;
249;SDS011;109;19.806;-70.704;2023-05-10T15:04:54;58.97;;;16.37;;
249;SDS011;109;19.806;-70.704;2023-05-10T15:07:23;54.10;;;16.50;;
249;SDS011;109;19.806;-70.704;2023-05-10T15:09:51;73.83;;;15.80;;
249;SDS011;109;19.806;-70.704;2023-05-10T15:12:18;116.83;;;18.27;;
249;SDS011;109;19.806;-70.704;2023-05-10T15:14:46;50.50;;;14.73;;
249;SDS011;109;19.806;-70.704;2023-05-10T15:17:13;42.27;;;15.53;;
249;SDS011;109;19.806;-70.704;2023-05-10T15:19:42;46.87;;;17.07;;
249;SDS011;109;19.806;-70.704;2023-05-10T15:22:09;50.03;;;15.47;;
249;SDS011;109;19.806;-70.704;2023-05-10T15:24:36;58.77;;;15.43;;
249;SDS011;109;19.806;-70.704;2023-05-10T15:27:02;79.67;;;17.13;;
249;SDS011;109;19.806;-70.704;2023-05-10T15:29:29;62.43;;;16.50;;
249;SDS011;109;19.806;-70.704;2023-05-10T15:31:57;52.03;;;15.60;;
249;SDS011;109;19.806;-70.704;2023-05-10T15:34:23;63.70;;;15.70;;
249;SDS011;109;19.806;-70.704;2023-05-10T15:36:49;68.53;;;14.60;;
249;SDS011;109;19.806;-70.704;2023-05-10T15:39:16;53.90;;;14.80;;
249;SDS011;109;19.806;-70.704;2023-05-10T15:41:42;50.07;;;13.23;;
249;SDS011;109;19.806;-70.704;2023-05-10T15:44:09;45.70;;;12.93;;
249;SDS011;109;19.806;-70.704;2023-05-10T15:46:35;55.57;;;15.77;;
249;SDS011;109;19.806;-70.704;2023-05-10T15:49:03;56.10;;;12.47;;